createdAt,value
2023-05-05T00:05:11.301Z,10.50
2023-05-05T00:11:57.733Z,10.40
2023-05-05T00:17:26.859Z,10.40
2023-05-05T00:24:29.133Z,10.30
2023-05-05T00:43:18.979Z,10.10
2023-05-05T00:48:46.929Z,10.00
2023-05-05T00:59:43.778Z,9.80
2023-05-05T01:05:14.169Z,9.80
2023-05-05T01:10:59.002Z,9.70
2023-05-05T01:16:33.464Z,9.70
2023-05-05T01:22:04.102Z,9.50
2023-05-05T01:28:33.364Z,9.50
2023-05-05T01:34:07.860Z,9.40
2023-05-05T01:39:37.884Z,9.40
2023-05-05T01:45:09.679Z,9.30
2023-05-05T01:50:38.349Z,9.20
2023-05-05T01:56:08.040Z,9.10
2023-05-05T02:01:49.867Z,9.10
2023-05-05T02:07:26.404Z,9.00
2023-05-05T02:19:13.532Z,8.90
2023-05-05T02:30:21.189Z,8.80
2023-05-05T02:35:54.996Z,8.80
2023-05-05T02:41:36.618Z,8.80
2023-05-05T02:47:49.433Z,8.60
2023-05-05T03:00:24.374Z,8.60
2023-05-05T03:06:23.692Z,8.50
2023-05-05T03:12:07.014Z,8.50
2023-05-05T03:17:54.501Z,8.40
2023-05-05T03:23:31.179Z,5.10
2023-05-05T03:34:32.298Z,8.40
2023-05-05T03:40:03.996Z,8.40
2023-05-05T03:45:33.282Z,8.50
2023-05-05T03:51:01.526Z,8.50
2023-05-05T03:56:32.230Z,8.50
2023-05-05T04:02:00.281Z,8.50
2023-05-05T04:07:28.227Z,9.20
2023-05-05T04:12:57.056Z,8.60
2023-05-05T04:18:25.467Z,8.60
2023-05-05T04:23:53.717Z,8.70
2023-05-05T04:29:22.967Z,8.90
2023-05-05T04:34:51.070Z,9.40
2023-05-05T04:45:55.975Z,9.30
2023-05-05T04:51:28.040Z,9.40
2023-05-05T04:56:56.576Z,9.60
2023-05-05T05:02:29.137Z,9.90
2023-05-05T05:07:57.486Z,10.20
2023-05-05T05:13:26.305Z,10.50
2023-05-05T05:18:54.857Z,10.90
2023-05-05T05:24:25.027Z,11.40
2023-05-05T05:29:54.621Z,11.60
2023-05-05T05:35:22.632Z,11.80
2023-05-05T05:40:50.830Z,12.30
2023-05-05T05:46:19.465Z,12.40
2023-05-05T05:51:48.101Z,12.80
2023-05-05T06:02:44.627Z,13.50
2023-05-05T06:13:49.098Z,14.80
2023-05-05T06:19:18.870Z,14.90
2023-05-05T06:30:17.873Z,15.50
2023-05-05T06:35:45.835Z,15.50
2023-05-05T06:41:13.823Z,15.60
2023-05-05T06:46:43.662Z,15.70
2023-05-05T06:52:11.645Z,16.50
2023-05-05T06:57:39.810Z,16.50
2023-05-05T07:03:09.122Z,16.90
2023-05-05T07:14:10.282Z,17.60
2023-05-05T07:30:40.651Z,18.20
2023-05-05T08:09:13.943Z,19.70
2023-05-05T08:14:43.033Z,20.40
2023-05-05T08:20:11.221Z,20.30
2023-05-05T08:31:11.072Z,20.60
2023-05-05T08:36:43.707Z,20.80
2023-05-05T08:42:29.269Z,21.10
2023-05-05T08:48:19.641Z,21.40
2023-05-05T08:54:03.923Z,21.40
2023-05-05T09:00:10.822Z,21.80
2023-05-05T09:05:44.949Z,21.90
2023-05-05T09:11:41.486Z,22.00
2023-05-05T09:17:27.253Z,22.10
2023-05-05T09:22:55.323Z,22.20
2023-05-05T09:51:29.801Z,22.20
2023-05-05T09:56:58.247Z,22.20
2023-05-05T10:02:36.642Z,22.50
2023-05-05T10:08:16.277Z,22.90
2023-05-05T10:13:45.903Z,23.20
2023-05-05T10:19:58.829Z,23.50
2023-05-05T10:25:31.872Z,23.60
2023-05-05T10:31:12.852Z,23.60
2023-05-05T10:36:49.670Z,23.60
2023-05-05T10:42:27.800Z,24.00
2023-05-05T10:48:01.503Z,24.20
2023-05-05T10:53:44.727Z,24.10
2023-05-05T10:59:38.108Z,24.20
2023-05-05T11:05:26.339Z,24.30
2023-05-05T11:10:57.949Z,24.60
2023-05-05T11:16:48.145Z,24.20
2023-05-05T11:22:16.760Z,24.10
2023-05-05T11:28:16.943Z,24.10
2023-05-05T11:33:46.221Z,24.00
2023-05-05T11:39:55.258Z,24.20
2023-05-05T11:45:25.009Z,24.00
2023-05-05T11:50:54.337Z,23.30
2023-05-05T11:56:23.499Z,23.30
2023-05-05T12:01:51.989Z,23.90
2023-05-05T12:13:33.593Z,23.60
2023-05-05T12:19:11.115Z,23.60
2023-05-05T12:24:40.268Z,23.80
2023-05-05T12:30:44.356Z,23.50
2023-05-05T12:47:46.637Z,21.60
2023-05-05T12:53:25.190Z,23.70
2023-05-05T12:58:55.709Z,23.70
2023-05-05T13:04:28.208Z,23.60
2023-05-05T13:10:10.914Z,23.60
2023-05-05T13:22:16.292Z,24.00
2023-05-05T13:27:44.370Z,24.30
2023-05-05T13:33:12.384Z,24.30
2023-05-05T13:44:22.373Z,24.70
2023-05-05T14:06:20.951Z,25.30
2023-05-05T14:11:54.882Z,25.50
2023-05-05T14:22:50.989Z,25.30
2023-05-05T14:28:44.964Z,25.20
2023-05-05T14:34:12.865Z,25.20
2023-05-05T14:39:53.436Z,25.30
2023-05-05T14:51:23.649Z,25.80
2023-05-05T15:07:52.501Z,24.40
2023-05-05T15:13:20.480Z,24.20
2023-05-05T15:18:49.461Z,24.10
2023-05-05T15:24:24.516Z,23.70
2023-05-05T15:35:27.317Z,23.40
2023-05-05T15:41:00.472Z,23.30
2023-05-05T15:52:08.018Z,23.40
2023-05-05T16:25:19.909Z,23.00
2023-05-05T16:30:47.785Z,23.00
2023-05-05T16:47:11.969Z,22.70
2023-05-05T16:52:39.932Z,22.50
2023-05-05T16:58:08.028Z,22.60
2023-05-05T17:52:57.377Z,21.00
2023-05-05T18:03:53.939Z,20.60
2023-05-05T19:04:41.494Z,19.40
2023-05-05T19:54:13.324Z,11.50
2023-05-05T22:27:39.103Z,12.30
